Ops Hamburg — A8VS9 — position and weather

sailwx.info

Track history (hours):
 
Tides and Currents Weather Stations Pressure Air Temp Water Temp Dewpoint Dewpoint Depression Visibility Wind Speed Wind Dir Waves Ship Positions

Ops Hamburg

Last reported at 2015-Apr-21 06:04 UTC. Time now 2015-Apr-21 09:53 UTC.
Position N 37°02' W 000°05'.

Length 148 m; draft 7.5 m.

Type: Ship (hazmat cat A). MMSI: 636092040.

Date/timePositionNaut miles runAvg speedWind from/ knotsBaromVisibWave heightAir tempDewpointWater temp
2015-Apr-21 06:04N 37°02' W 000°05'611.8
2015-Apr-21 05:32N 37°08' W 000°03'1211.6
2015-Apr-21 04:30N 37°19' E 000°02'1111.4
2015-Apr-21 03:33N 37°30' E 000°06'1211.5
2015-Apr-21 02:33N 37°41' E 000°10'1211.8
2015-Apr-21 01:32N 37°52' E 000°15'1311.8
2015-Apr-21 00:24N 38°05' E 000°20'1011.9
2015-Apr-20 23:34N 38°14' E 000°24'1312.0
2015-Apr-20 22:30N 38°26' E 000°29'1112.0
2015-Apr-20 21:33N 38°38' E 000°32'2811.5
2015-Apr-20 19:07N 39°02' E 000°15'3011.7
2015-Apr-20 16:33N 39°24' W 000°12'6 5.7
2015-Apr-20 15:32N 39°27' W 000°19'0 0.0
2015-Apr-20 14:32N 39°27' W 000°19'0 0.0
2015-Apr-20 13:32N 39°27' W 000°19'0 0.0
2015-Apr-20 12:29N 39°27' W 000°19'0 0.0
2015-Apr-20 11:32N 39°27' W 000°19'0 0.0
2015-Apr-20 10:32N 39°27' W 000°19'0 0.0
2015-Apr-20 09:32N 39°27' W 000°19'4 3.6
2015-Apr-20 08:33N 39°24' W 000°16'4 4.2
2015-Apr-20 07:33N 39°28' W 000°13'4711.6
2015-Apr-20 03:27N 40°00' E 000°32'1213.2
2015-Apr-20 02:33N 40°08' E 000°44'1312.9
2015-Apr-20 01:33N 40°17' E 000°56'1312.8
2015-Apr-20 00:32N 40°25' E 001°09'1212.5
2015-Apr-19 23:33N 40°34' E 001°21'1212.5
2015-Apr-19 22:33N 40°42' E 001°33'1212.1
2015-Apr-19 21:33N 40°50' E 001°45'1212.4
2015-Apr-19 20:33N 40°59' E 001°57'1312.6
2015-Apr-19 19:33N 41°08' E 002°08'1211.7
2015-Apr-19 18:33N 41°19' E 002°10'2 0.2
2015-Apr-19 10:31N 41°21' E 002°10'5 5.0
2015-Apr-19 09:33N 41°17' E 002°13'7 6.3
2015-Apr-19 08:28N 41°17' E 002°22'1010.2
2015-Apr-19 07:31N 41°20' E 002°34'6211.9
2015-Apr-19 02:17N 41°58' E 003°40'2512.4
2015-Apr-19 00:17N 42°16' E 004°03'1012.5
2015-Apr-18 23:29N 42°23' E 004°13'1513.2
2015-Apr-18 22:22N 42°33' E 004°27'1312.4
2015-Apr-18 21:20N 42°42' E 004°39'1413.0
2015-Apr-18 20:14N 42°52' E 004°53'1113.2
2015-Apr-18 19:22N 43°01' E 005°04'1012.2
2015-Apr-18 18:34N 43°10' E 005°08'1211.7
2015-Apr-18 17:33N 43°20' E 005°17'3 2.6
2015-Apr-18 16:29N 43°21' E 005°20'0 0.0
2015-Apr-18 15:32N 43°21' E 005°20'0 0.0
2015-Apr-18 14:20N 43°21' E 005°20'0 0.0
2015-Apr-18 13:29N 43°21' E 005°20'0 0.0
2015-Apr-18 12:29N 43°21' E 005°20'0 0.0
2015-Apr-18 11:29N 43°21' E 005°20'0 0.0
2015-Apr-18 10:23N 43°21' E 005°20'0 0.0
2015-Apr-18 09:23N 43°21' E 005°20'0 0.0
2015-Apr-18 08:29N 43°21' E 005°20'0 0.0
2015-Apr-18 07:26N 43°21' E 005°20'0 0.0
2015-Apr-18 06:29N 43°21' E 005°20'0 0.0
2015-Apr-18 05:26N 43°21' E 005°20'0 0.0
2015-Apr-18 04:23N 43°21' E 005°20'0 0.0
2015-Apr-18 03:29N 43°21' E 005°20'0 0.0
2015-Apr-18 02:32N 43°21' E 005°20'0 0.0
2015-Apr-18 01:32N 43°21' E 005°20'0 0.0
2015-Apr-18 00:32N 43°21' E 005°20'0 0.0
2015-Apr-17 23:11N 43°21' E 005°20'0 0.0
2015-Apr-17 22:29N 43°21' E 005°20'0 0.2
2015-Apr-17 21:33N 43°21' E 005°20'6 5.6
2015-Apr-17 20:33N 43°18' E 005°14'9 8.5
2015-Apr-17 19:33N 43°10' E 005°10'1212.0
2015-Apr-17 18:33N 42°59' E 005°03'1210.5
2015-Apr-17 17:26N 42°47' E 005°02'910.8
2015-Apr-17 16:33N 42°37' E 005°02'1610.8
2015-Apr-17 15:06N 42°22' E 005°00'911.1
2015-Apr-17 14:18N 42°13' E 004°60'1211.2
2015-Apr-17 13:11N 42°00' E 004°59'1212.2
2015-Apr-17 12:14N 41°49' E 004°59'910.9
2015-Apr-17 11:27N 41°40' E 004°57'1310.6
2015-Apr-17 10:12N 41°27' E 004°56'711.4
2015-Apr-17 09:33N 41°20' E 004°56'1412.8
2015-Apr-17 08:25N 41°05' E 004°55'4315.1
2015-Apr-17 05:33N 40°22' E 004°52'10014.0
2015-Apr-16 22:23N 38°47' E 004°10'1213.5
2015-Apr-16 21:32N 38°37' E 004°04'1713.8
2015-Apr-16 20:16N 38°21' E 003°56'103 2.1
2015-Apr-14 18:11N 36°46' E 003°04'0 0.0
2015-Apr-14 17:23N 36°46' E 003°04'0 0.0
2015-Apr-14 16:26N 36°46' E 003°04'0 0.0
2015-Apr-14 15:32N 36°46' E 003°04'0 0.0
2015-Apr-14 14:20N 36°46' E 003°04'0 0.0
2015-Apr-14 13:23N 36°46' E 003°04'0 0.0
2015-Apr-14 12:26N 36°46' E 003°04'0 0.0
2015-Apr-14 04:20N 36°46' E 003°04'0 0.0
2015-Apr-14 03:20N 36°46' E 003°04'0 0.0
2015-Apr-14 02:32N 36°46' E 003°04'0 0.0
2015-Apr-14 01:32N 36°46' E 003°04'0 0.0
2015-Apr-14 00:32N 36°46' E 003°04'0 0.0
2015-Apr-13 23:14N 36°46' E 003°04'0 0.0
2015-Apr-13 22:23N 36°46' E 003°04'0 0.0
2015-Apr-13 20:26N 36°46' E 003°04'0 0.0
2015-Apr-13 15:29N 36°46' E 003°04'0 0.0
2015-Apr-13 14:32N 36°46' E 003°04'0 0.0
2015-Apr-13 13:08N 36°46' E 003°04'0 0.0
2015-Apr-13 12:29N 36°46' E 003°04'0 0.0
2015-Apr-13 11:29N 36°46' E 003°04'0 0.0
2015-Apr-13 08:29N 36°46' E 003°04'0 0.0
2015-Apr-13 03:29N 36°46' E 003°04'0 0.0
2015-Apr-13 02:20N 36°46' E 003°04'0 0.0
2015-Apr-13 01:29N 36°46' E 003°04'0 0.0
2015-Apr-13 00:26N 36°46' E 003°04'0 0.0
2015-Apr-12 23:29N 36°46' E 003°04'0 0.2
2015-Apr-12 21:33N 36°46' E 003°04'3 3.0
2015-Apr-12 20:31N 36°49' E 003°05'0 0.0
2015-Apr-12 19:25N 36°49' E 003°05'0 0.0
2015-Apr-12 18:31N 36°49' E 003°05'0 0.0
2015-Apr-12 17:31N 36°49' E 003°05'0 0.0
2015-Apr-12 16:31N 36°49' E 003°05'0 0.0
2015-Apr-12 15:31N 36°49' E 003°05'0 0.1
2015-Apr-12 14:31N 36°49' E 003°05'0 0.0
2015-Apr-12 13:13N 36°49' E 003°06'0 0.0
2015-Apr-12 12:13N 36°49' E 003°06'0 0.0
2015-Apr-12 11:28N 36°49' E 003°06'0 0.0
2015-Apr-11 20:14N 36°49' E 003°06'0 0.0
2015-Apr-11 19:31N 36°49' E 003°06'0 0.0
2015-Apr-11 14:31N 36°49' E 003°06'0 0.0
2015-Apr-11 06:16N 36°49' E 003°06'  
Track history (hours):
 
Tides and Currents Weather Stations Pressure Air Temp Water Temp Dewpoint Dewpoint Depression Visibility Wind Speed Wind Dir Waves Ship Positions

Ops Hamburg

Last reported at 2015-Apr-21 06:04 UTC. Time now 2015-Apr-21 09:53 UTC.
Position N 37°02' W 000°05'.

Length 148 m; draft 7.5 m.

Type: Ship (hazmat cat A). MMSI: 636092040.

Date/timePositionNaut miles runAvg speedWind from/ knotsBaromVisibWave heightAir tempDewpointWater temp
2015-Apr-21 06:04N 37°02' W 000°05'611.8
2015-Apr-21 05:32N 37°08' W 000°03'1211.6
2015-Apr-21 04:30N 37°19' E 000°02'1111.4
2015-Apr-21 03:33N 37°30' E 000°06'1211.5
2015-Apr-21 02:33N 37°41' E 000°10'1211.8
2015-Apr-21 01:32N 37°52' E 000°15'1311.8
2015-Apr-21 00:24N 38°05' E 000°20'1011.9
2015-Apr-20 23:34N 38°14' E 000°24'1312.0
2015-Apr-20 22:30N 38°26' E 000°29'1112.0
2015-Apr-20 21:33N 38°38' E 000°32'2811.5
2015-Apr-20 19:07N 39°02' E 000°15'3011.7
2015-Apr-20 16:33N 39°24' W 000°12'6 5.7
2015-Apr-20 15:32N 39°27' W 000°19'0 0.0
2015-Apr-20 14:32N 39°27' W 000°19'0 0.0
2015-Apr-20 13:32N 39°27' W 000°19'0 0.0
2015-Apr-20 12:29N 39°27' W 000°19'0 0.0
2015-Apr-20 11:32N 39°27' W 000°19'0 0.0
2015-Apr-20 10:32N 39°27' W 000°19'0 0.0
2015-Apr-20 09:32N 39°27' W 000°19'4 3.6
2015-Apr-20 08:33N 39°24' W 000°16'4 4.2
2015-Apr-20 07:33N 39°28' W 000°13'4711.6
2015-Apr-20 03:27N 40°00' E 000°32'1213.2
2015-Apr-20 02:33N 40°08' E 000°44'1312.9
2015-Apr-20 01:33N 40°17' E 000°56'1312.8
2015-Apr-20 00:32N 40°25' E 001°09'1212.5
2015-Apr-19 23:33N 40°34' E 001°21'1212.5
2015-Apr-19 22:33N 40°42' E 001°33'1212.1
2015-Apr-19 21:33N 40°50' E 001°45'1212.4
2015-Apr-19 20:33N 40°59' E 001°57'1312.6
2015-Apr-19 19:33N 41°08' E 002°08'1211.7
2015-Apr-19 18:33N 41°19' E 002°10'2 0.2
2015-Apr-19 10:31N 41°21' E 002°10'5 5.0
2015-Apr-19 09:33N 41°17' E 002°13'7 6.3
2015-Apr-19 08:28N 41°17' E 002°22'1010.2
2015-Apr-19 07:31N 41°20' E 002°34'6211.9
2015-Apr-19 02:17N 41°58' E 003°40'2512.4
2015-Apr-19 00:17N 42°16' E 004°03'1012.5
2015-Apr-18 23:29N 42°23' E 004°13'1513.2
2015-Apr-18 22:22N 42°33' E 004°27'1312.4
2015-Apr-18 21:20N 42°42' E 004°39'1413.0
2015-Apr-18 20:14N 42°52' E 004°53'1113.2
2015-Apr-18 19:22N 43°01' E 005°04'1012.2
2015-Apr-18 18:34N 43°10' E 005°08'1211.7
2015-Apr-18 17:33N 43°20' E 005°17'3 2.6
2015-Apr-18 16:29N 43°21' E 005°20'0 0.0
2015-Apr-18 15:32N 43°21' E 005°20'0 0.0
2015-Apr-18 14:20N 43°21' E 005°20'0 0.0
2015-Apr-18 13:29N 43°21' E 005°20'0 0.0
2015-Apr-18 12:29N 43°21' E 005°20'0 0.0
2015-Apr-18 11:29N 43°21' E 005°20'0 0.0
2015-Apr-18 10:23N 43°21' E 005°20'0 0.0
2015-Apr-18 09:23N 43°21' E 005°20'0 0.0
2015-Apr-18 08:29N 43°21' E 005°20'0 0.0
2015-Apr-18 07:26N 43°21' E 005°20'0 0.0
2015-Apr-18 06:29N 43°21' E 005°20'0 0.0
2015-Apr-18 05:26N 43°21' E 005°20'0 0.0
2015-Apr-18 04:23N 43°21' E 005°20'0 0.0
2015-Apr-18 03:29N 43°21' E 005°20'0 0.0
2015-Apr-18 02:32N 43°21' E 005°20'0 0.0
2015-Apr-18 01:32N 43°21' E 005°20'0 0.0
2015-Apr-18 00:32N 43°21' E 005°20'0 0.0
2015-Apr-17 23:11N 43°21' E 005°20'0 0.0
2015-Apr-17 22:29N 43°21' E 005°20'0 0.2
2015-Apr-17 21:33N 43°21' E 005°20'6 5.6
2015-Apr-17 20:33N 43°18' E 005°14'9 8.5
2015-Apr-17 19:33N 43°10' E 005°10'1212.0
2015-Apr-17 18:33N 42°59' E 005°03'1210.5
2015-Apr-17 17:26N 42°47' E 005°02'910.8
2015-Apr-17 16:33N 42°37' E 005°02'1610.8
2015-Apr-17 15:06N 42°22' E 005°00'911.1
2015-Apr-17 14:18N 42°13' E 004°60'1211.2
2015-Apr-17 13:11N 42°00' E 004°59'1212.2
2015-Apr-17 12:14N 41°49' E 004°59'910.9
2015-Apr-17 11:27N 41°40' E 004°57'1310.6
2015-Apr-17 10:12N 41°27' E 004°56'711.4
2015-Apr-17 09:33N 41°20' E 004°56'1412.8
2015-Apr-17 08:25N 41°05' E 004°55'4315.1
2015-Apr-17 05:33N 40°22' E 004°52'10014.0
2015-Apr-16 22:23N 38°47' E 004°10'1213.5
2015-Apr-16 21:32N 38°37' E 004°04'1713.8
2015-Apr-16 20:16N 38°21' E 003°56'103 2.1
2015-Apr-14 18:11N 36°46' E 003°04'0 0.0
2015-Apr-14 17:23N 36°46' E 003°04'0 0.0
2015-Apr-14 16:26N 36°46' E 003°04'0 0.0
2015-Apr-14 15:32N 36°46' E 003°04'0 0.0
2015-Apr-14 14:20N 36°46' E 003°04'0 0.0
2015-Apr-14 13:23N 36°46' E 003°04'0 0.0
2015-Apr-14 12:26N 36°46' E 003°04'0 0.0
2015-Apr-14 04:20N 36°46' E 003°04'0 0.0
2015-Apr-14 03:20N 36°46' E 003°04'0 0.0
2015-Apr-14 02:32N 36°46' E 003°04'0 0.0
2015-Apr-14 01:32N 36°46' E 003°04'0 0.0
2015-Apr-14 00:32N 36°46' E 003°04'0 0.0
2015-Apr-13 23:14N 36°46' E 003°04'0 0.0
2015-Apr-13 22:23N 36°46' E 003°04'0 0.0
2015-Apr-13 20:26N 36°46' E 003°04'0 0.0
2015-Apr-13 15:29N 36°46' E 003°04'0 0.0
2015-Apr-13 14:32N 36°46' E 003°04'0 0.0
2015-Apr-13 13:08N 36°46' E 003°04'0 0.0
2015-Apr-13 12:29N 36°46' E 003°04'0 0.0
2015-Apr-13 11:29N 36°46' E 003°04'0 0.0
2015-Apr-13 08:29N 36°46' E 003°04'0 0.0
2015-Apr-13 03:29N 36°46' E 003°04'0 0.0
2015-Apr-13 02:20N 36°46' E 003°04'0 0.0
2015-Apr-13 01:29N 36°46' E 003°04'0 0.0
2015-Apr-13 00:26N 36°46' E 003°04'0 0.0
2015-Apr-12 23:29N 36°46' E 003°04'0 0.2
2015-Apr-12 21:33N 36°46' E 003°04'3 3.0
2015-Apr-12 20:31N 36°49' E 003°05'0 0.0
2015-Apr-12 19:25N 36°49' E 003°05'0 0.0
2015-Apr-12 18:31N 36°49' E 003°05'0 0.0
2015-Apr-12 17:31N 36°49' E 003°05'0 0.0
2015-Apr-12 16:31N 36°49' E 003°05'0 0.0
2015-Apr-12 15:31N 36°49' E 003°05'0 0.1
2015-Apr-12 14:31N 36°49' E 003°05'0 0.0
2015-Apr-12 13:13N 36°49' E 003°06'0 0.0
2015-Apr-12 12:13N 36°49' E 003°06'0 0.0
2015-Apr-12 11:28N 36°49' E 003°06'0 0.0
2015-Apr-11 20:14N 36°49' E 003°06'0 0.0
2015-Apr-11 19:31N 36°49' E 003°06'0 0.0
2015-Apr-11 14:31N 36°49' E 003°06'0 0.0
2015-Apr-11 06:16N 36°49' E 003°06'  

Dump ship's entire track history